Terminal Aerodrome Forecast
Issued by NWS Charleston, WV

Current Version | Previous Version | Text Only | Print | Product List | Glossary Off
Versions: 1 2 3 4 5 6 7 8 9 10 11 12 13 14 15 16 17 18 19 20 21 22 23 24 25 26

000
FTUS41 KRLX 272100 AAC
TAFHTS
TAF AMD
KHTS 272103Z 2721/2818 23012G20KT P6SM SCT035 BKN100
     FM272200 23013G20KT P6SM VCTS BKN040CB BKN110
     FM280000 26009KT P6SM BKN045=

USA.gov is the U.S. government's official web portal to all federal, state and local government web resources and services.